createdAt,value
2022-09-02T00:01:00.578Z,2.77
2022-09-02T00:03:34.475Z,3.00
2022-09-02T00:06:02.854Z,2.60
2022-09-02T00:08:32.046Z,2.50
2022-09-02T00:11:05.755Z,2.70
2022-09-02T00:13:34.858Z,3.20
2022-09-02T00:16:02.272Z,2.70
2022-09-02T00:18:29.206Z,3.73
2022-09-02T00:20:56.306Z,2.70
2022-09-02T00:23:23.459Z,3.10
2022-09-02T00:25:54.032Z,2.83
2022-09-02T00:28:21.233Z,2.80
2022-09-02T00:30:48.609Z,2.97
2022-09-02T00:33:15.562Z,3.37
2022-09-02T00:35:42.396Z,3.03
2022-09-02T00:38:09.689Z,3.37
2022-09-02T00:40:38.541Z,3.57
2022-09-02T00:43:08.665Z,3.60
2022-09-02T00:45:38.124Z,2.70
2022-09-02T00:48:06.436Z,3.10
2022-09-02T00:50:36.709Z,3.73
2022-09-02T00:53:08.465Z,3.27
2022-09-02T00:55:46.965Z,3.63
2022-09-02T00:58:22.022Z,2.83
2022-09-02T01:00:52.597Z,2.80
2022-09-02T01:03:21.922Z,2.70
2022-09-02T01:05:50.901Z,3.00
2022-09-02T01:08:22.977Z,3.00
2022-09-02T01:10:49.779Z,2.70
2022-09-02T01:13:19.893Z,2.57
2022-09-02T01:15:54.924Z,3.00
2022-09-02T01:18:28.917Z,3.33
2022-09-02T01:20:56.686Z,3.23
2022-09-02T01:23:23.957Z,3.13
2022-09-02T01:25:52.093Z,2.83
2022-09-02T01:28:20.005Z,2.63
2022-09-02T01:30:52.828Z,3.30
2022-09-02T01:33:23.087Z,3.80
2022-09-02T01:35:52.849Z,3.20
2022-09-02T01:38:20.673Z,3.17
2022-09-02T01:40:48.032Z,2.87
2022-09-02T01:43:19.864Z,3.10
2022-09-02T01:45:48.595Z,3.37
2022-09-02T01:48:21.589Z,3.40
2022-09-02T01:50:52.540Z,2.53
2022-09-02T01:53:19.413Z,3.27
2022-09-02T01:55:46.534Z,2.97
2022-09-02T01:58:13.222Z,3.00
2022-09-02T02:00:39.998Z,2.73
2022-09-02T02:03:06.730Z,2.60
2022-09-02T02:05:33.491Z,3.13
2022-09-02T02:08:00.330Z,3.10
2022-09-02T02:10:27.546Z,3.20
2022-09-02T02:12:54.306Z,3.30
2022-09-02T02:15:22.125Z,3.40
2022-09-02T02:17:49.295Z,3.50
2022-09-02T02:20:18.181Z,2.97
2022-09-02T02:22:46.003Z,3.37
2022-09-02T02:25:15.254Z,2.60
2022-09-02T02:27:43.813Z,2.70
2022-09-02T02:30:11.831Z,3.90
2022-09-02T02:32:38.738Z,2.67
2022-09-02T02:35:06.527Z,3.50
2022-09-02T02:37:33.255Z,3.50
2022-09-02T02:39:59.998Z,3.00
2022-09-02T02:42:26.727Z,3.17
2022-09-02T02:44:53.622Z,2.70
2022-09-02T02:47:20.449Z,3.20
2022-09-02T02:49:47.112Z,3.10
2022-09-02T02:52:14.261Z,3.40
2022-09-02T02:54:41.721Z,2.97
2022-09-02T02:57:09.689Z,3.10
2022-09-02T02:59:37.691Z,2.40
2022-09-02T03:02:06.230Z,3.10
2022-09-02T03:04:34.126Z,3.13
2022-09-02T03:07:00.980Z,2.70
2022-09-02T03:09:27.729Z,3.13
2022-09-02T03:11:54.405Z,3.60
2022-09-02T03:14:21.088Z,2.67
2022-09-02T03:16:47.744Z,3.20
2022-09-02T03:19:14.392Z,2.93
2022-09-02T03:21:42.228Z,3.30
2022-09-02T03:24:11.260Z,3.53
2022-09-02T03:26:40.305Z,2.97
2022-09-02T03:29:07.268Z,3.07
2022-09-02T03:31:34.497Z,3.03
2022-09-02T03:34:01.259Z,3.13
2022-09-02T03:36:32.726Z,3.27
2022-09-02T03:38:59.869Z,3.40
2022-09-02T03:41:26.906Z,2.60
2022-09-02T03:43:53.601Z,3.37
2022-09-02T03:46:20.434Z,3.30
2022-09-02T03:48:47.852Z,3.00
2022-09-02T03:51:14.608Z,3.30
2022-09-02T03:53:41.355Z,3.37
2022-09-02T03:56:12.076Z,3.23
2022-09-02T03:58:41.043Z,3.47
2022-09-02T04:01:13.071Z,3.90
2022-09-02T04:03:39.903Z,3.40
2022-09-02T04:06:10.281Z,2.93
2022-09-02T04:08:37.114Z,3.80
2022-09-02T04:11:14.765Z,3.80
2022-09-02T04:13:41.428Z,3.60
2022-09-02T04:16:10.856Z,3.77
2022-09-02T04:18:38.128Z,3.43
2022-09-02T04:21:05.610Z,3.50
2022-09-02T04:23:33.020Z,3.53
2022-09-02T04:26:04.821Z,3.97
2022-09-02T04:28:31.512Z,4.17
2022-09-02T04:30:58.340Z,3.67
2022-09-02T04:33:25.157Z,3.70
2022-09-02T04:35:52.417Z,3.43
2022-09-02T04:38:19.109Z,3.70
2022-09-02T04:40:47.504Z,3.67
2022-09-02T04:43:14.854Z,3.97
2022-09-02T04:45:44.690Z,3.20
2022-09-02T04:48:12.243Z,3.20
2022-09-02T04:50:40.769Z,3.67
2022-09-02T04:53:07.909Z,3.50
2022-09-02T04:55:35.284Z,3.33
2022-09-02T04:58:02.154Z,4.03
2022-09-02T05:00:28.846Z,3.23
2022-09-02T05:02:55.863Z,3.50
2022-09-02T05:05:22.727Z,3.20
2022-09-02T05:07:49.470Z,4.27
2022-09-02T05:10:16.355Z,3.43
2022-09-02T05:12:43.660Z,3.07
2022-09-02T05:15:12.224Z,3.80
2022-09-02T05:17:41.889Z,3.93
2022-09-02T05:20:09.647Z,3.27
2022-09-02T05:22:37.197Z,4.00
2022-09-02T05:33:41.145Z,3.43
2022-09-02T05:36:17.520Z,3.70
2022-09-02T05:38:45.018Z,3.10
2022-09-02T05:41:16.014Z,3.50
2022-09-02T05:46:14.782Z,3.27
2022-09-02T05:49:00.180Z,3.33
2022-09-02T05:51:26.887Z,3.17
2022-09-02T05:53:55.467Z,3.23
2022-09-02T05:56:22.906Z,3.60
2022-09-02T05:58:50.290Z,3.93
2022-09-02T06:01:26.604Z,3.37
2022-09-02T06:03:53.809Z,3.07
2022-09-02T06:06:22.991Z,2.70
2022-09-02T06:08:50.990Z,2.93
2022-09-02T06:11:18.321Z,3.23
2022-09-02T06:14:09.406Z,3.43
2022-09-02T06:16:39.202Z,3.17
2022-09-02T06:19:06.989Z,3.40
2022-09-02T06:21:34.344Z,3.67
2022-09-02T06:24:01.204Z,3.23
2022-09-02T06:27:14.566Z,2.60
2022-09-02T06:33:07.519Z,3.27
2022-09-02T06:38:30.676Z,3.40
2022-09-02T06:44:21.583Z,2.43
2022-09-02T06:46:54.671Z,2.87
2022-09-02T06:49:22.232Z,3.33
2022-09-02T06:51:50.857Z,2.57
2022-09-02T06:54:20.504Z,2.50
2022-09-02T06:56:49.634Z,2.13
2022-09-02T06:59:18.451Z,2.40
2022-09-02T07:01:45.895Z,2.57
2022-09-02T07:04:31.537Z,2.10
2022-09-02T07:06:58.368Z,2.20
2022-09-02T07:09:31.195Z,2.00
2022-09-02T07:12:04.300Z,2.30
2022-09-02T07:14:36.350Z,2.60
2022-09-02T07:17:03.420Z,2.13
2022-09-02T07:19:30.472Z,2.87
2022-09-02T07:21:57.273Z,1.70
2022-09-02T07:24:24.677Z,1.80
2022-09-02T07:26:55.241Z,2.20
2022-09-02T07:29:23.175Z,1.70
2022-09-02T07:31:50.106Z,1.73
2022-09-02T07:34:17.968Z,1.80
2022-09-02T07:36:45.919Z,2.10
2022-09-02T07:39:14.555Z,1.63
2022-09-02T07:41:43.670Z,2.00
2022-09-02T07:44:10.655Z,1.60
2022-09-02T07:46:38.269Z,1.53
2022-09-02T07:49:09.127Z,1.93
2022-09-02T07:51:39.770Z,1.70
2022-09-02T07:54:08.434Z,1.80
2022-09-02T07:56:35.137Z,1.90
2022-09-02T07:59:03.002Z,1.30
2022-09-02T08:01:30.410Z,1.30
2022-09-02T08:03:58.614Z,1.57
2022-09-02T08:06:34.424Z,1.43
2022-09-02T08:09:04.154Z,1.63
2022-09-02T08:11:32.449Z,1.50
2022-09-02T08:14:00.011Z,1.70
2022-09-02T08:16:27.064Z,1.50
2022-09-02T08:18:54.023Z,1.43
2022-09-02T08:21:20.693Z,1.30
2022-09-02T08:23:49.217Z,1.20
2022-09-02T08:26:16.187Z,1.80
2022-09-02T08:28:42.906Z,1.40
2022-09-02T08:31:10.061Z,1.63
2022-09-02T08:33:36.896Z,1.57
2022-09-02T08:36:11.060Z,1.30
2022-09-02T08:38:38.115Z,1.70
2022-09-02T08:44:06.816Z,1.20
2022-09-02T08:46:35.958Z,1.57
2022-09-02T08:49:08.424Z,1.20
2022-09-02T08:51:56.493Z,1.43
2022-09-02T08:59:52.316Z,1.23
2022-09-02T09:02:20.530Z,1.60
2022-09-02T09:05:08.896Z,1.43
2022-09-02T09:07:44.579Z,1.40
2022-09-02T09:10:25.181Z,1.13
2022-09-02T09:13:18.606Z,1.20
2022-09-02T09:16:00.532Z,1.23
2022-09-02T09:18:39.404Z,1.33
2022-09-02T09:21:07.559Z,1.00
2022-09-02T09:23:41.212Z,1.23
2022-09-02T09:26:11.373Z,1.20
2022-09-02T09:31:22.486Z,1.07
2022-09-02T09:34:01.496Z,1.33
2022-09-02T09:36:44.620Z,1.10
2022-09-02T09:39:25.519Z,1.07
2022-09-02T09:41:58.211Z,1.00
2022-09-02T09:44:45.993Z,1.00
2022-09-02T09:47:23.189Z,1.00
2022-09-02T09:49:52.612Z,0.87
2022-09-02T09:52:30.394Z,1.00
2022-09-02T09:55:13.165Z,0.97
2022-09-02T09:57:44.811Z,0.90
2022-09-02T10:00:32.082Z,1.20
2022-09-02T10:05:46.848Z,1.17
2022-09-02T10:11:03.370Z,1.00
2022-09-02T10:13:36.319Z,1.47
2022-09-02T10:16:48.391Z,1.30
2022-09-02T10:19:48.145Z,1.10
2022-09-02T10:22:22.537Z,1.83
2022-09-02T10:25:39.344Z,1.20
2022-09-02T10:28:24.828Z,1.20
2022-09-02T10:31:20.039Z,0.80
2022-09-02T10:34:04.627Z,1.30
2022-09-02T10:36:59.550Z,1.50
2022-09-02T10:42:40.852Z,1.40
2022-09-02T10:45:30.884Z,1.10
2022-09-02T10:48:06.885Z,1.37
2022-09-02T10:50:45.573Z,0.97
2022-09-02T10:53:42.087Z,1.20
2022-09-02T10:56:16.246Z,1.20
2022-09-02T10:58:43.034Z,1.20
2022-09-02T11:01:21.750Z,1.30
2022-09-02T11:04:02.885Z,1.03
2022-09-02T11:06:46.007Z,0.90
2022-09-02T11:09:37.154Z,1.40
2022-09-02T11:12:16.821Z,1.37
2022-09-02T11:15:06.158Z,1.10
2022-09-02T11:17:54.079Z,1.23
2022-09-02T11:20:44.429Z,0.77
2022-09-02T11:26:24.147Z,1.07
2022-09-02T11:29:14.893Z,1.13
2022-09-02T11:32:07.775Z,1.20
2022-09-02T11:34:45.372Z,1.20
2022-09-02T11:37:24.599Z,1.20
2022-09-02T11:40:17.325Z,0.90
2022-09-02T11:43:03.420Z,1.00
2022-09-02T11:49:37.406Z,0.77
2022-09-02T11:52:33.058Z,1.20
2022-09-02T11:55:16.761Z,1.33
2022-09-02T11:58:01.333Z,1.00
2022-09-02T12:00:34.940Z,1.10
2022-09-02T12:03:16.790Z,1.00
2022-09-02T12:06:08.192Z,1.40
2022-09-02T12:08:36.846Z,1.30
2022-09-02T12:11:07.230Z,1.20
2022-09-02T12:13:38.342Z,1.00
2022-09-02T12:16:29.562Z,1.00
2022-09-02T12:18:59.436Z,0.90
2022-09-02T12:21:31.459Z,1.00
2022-09-02T12:24:01.073Z,0.90
2022-09-02T12:26:48.548Z,1.20
2022-09-02T12:29:25.657Z,1.00
2022-09-02T12:31:55.083Z,1.17
2022-09-02T12:34:46.061Z,0.93
2022-09-02T12:37:50.292Z,1.10
2022-09-02T12:40:24.159Z,1.30
2022-09-02T12:43:00.561Z,1.70
2022-09-02T12:45:32.884Z,1.03
2022-09-02T12:48:08.504Z,1.00
2022-09-02T12:50:53.791Z,1.00
2022-09-02T12:53:23.626Z,1.03
2022-09-02T12:56:04.673Z,1.13
2022-09-02T12:58:36.736Z,1.10
2022-09-02T13:01:22.250Z,1.27
2022-09-02T13:04:00.587Z,1.13
2022-09-02T13:06:51.889Z,1.03
2022-09-02T13:09:42.022Z,1.20
2022-09-02T13:12:27.186Z,1.60
2022-09-02T13:15:11.040Z,1.00
2022-09-02T13:17:48.662Z,1.27
2022-09-02T13:20:20.397Z,1.10
2022-09-02T13:22:55.754Z,1.87
2022-09-02T13:25:53.711Z,1.50
2022-09-02T13:28:50.009Z,1.00
2022-09-02T13:31:22.083Z,1.40
2022-09-02T13:34:13.239Z,1.40
2022-09-02T13:36:44.924Z,1.10
2022-09-02T13:39:20.381Z,1.10
2022-09-02T13:41:49.452Z,0.90
2022-09-02T13:44:30.999Z,1.00
2022-09-02T13:47:04.464Z,0.90
2022-09-02T13:49:37.854Z,1.13
2022-09-02T13:52:07.116Z,1.17
2022-09-02T13:54:37.195Z,1.37
2022-09-02T13:57:07.064Z,1.20
2022-09-02T13:59:38.723Z,1.13
2022-09-02T14:02:30.199Z,0.90
2022-09-02T14:05:01.552Z,1.40
2022-09-02T14:07:33.171Z,1.40
2022-09-02T14:10:03.160Z,0.90
2022-09-02T14:12:33.897Z,1.20
2022-09-02T14:15:01.937Z,1.20
2022-09-02T14:17:28.752Z,1.00
2022-09-02T14:20:28.243Z,1.33
2022-09-02T14:22:59.748Z,1.07
2022-09-02T14:25:30.390Z,1.47
2022-09-02T14:28:00.605Z,1.03
2022-09-02T14:30:38.815Z,1.03
2022-09-02T14:33:31.242Z,1.00
2022-09-02T14:36:03.836Z,1.30
2022-09-02T14:38:50.000Z,4.53
2022-09-02T14:41:16.640Z,1.20
2022-09-02T14:43:53.318Z,1.20
2022-09-02T14:46:31.015Z,2.90
2022-09-02T14:49:10.050Z,1.20
2022-09-02T14:51:36.880Z,1.33
2022-09-02T14:54:04.484Z,1.80
2022-09-02T14:56:52.536Z,0.90
2022-09-02T14:59:20.308Z,1.00
2022-09-02T15:01:51.473Z,1.30
2022-09-02T15:04:19.525Z,1.10
2022-09-02T15:06:48.394Z,1.20
2022-09-02T15:09:17.212Z,1.00
2022-09-02T15:11:49.399Z,1.10
2022-09-02T15:14:16.258Z,1.27
2022-09-02T15:16:43.431Z,1.20
2022-09-02T15:19:11.970Z,1.00
2022-09-02T15:21:38.791Z,1.00
2022-09-02T15:24:05.874Z,1.10
2022-09-02T15:26:32.866Z,0.90
2022-09-02T15:29:00.490Z,1.10
2022-09-02T15:31:27.354Z,1.00
2022-09-02T15:33:54.264Z,1.00
2022-09-02T15:36:21.409Z,1.07
2022-09-02T15:38:48.262Z,1.10
2022-09-02T15:41:21.262Z,1.13
2022-09-02T15:43:48.505Z,1.20
2022-09-02T15:46:27.965Z,0.87
2022-09-02T15:49:01.685Z,1.10
2022-09-02T15:51:29.253Z,1.43
2022-09-02T15:54:04.838Z,0.90
2022-09-02T15:56:34.350Z,1.37
2022-09-02T15:59:09.989Z,1.07
2022-09-02T16:01:40.494Z,1.00
2022-09-02T16:04:08.222Z,0.83
2022-09-02T16:06:39.844Z,0.90
2022-09-02T16:09:08.059Z,0.83
2022-09-02T16:11:41.375Z,1.30
2022-09-02T16:14:08.330Z,1.20
2022-09-02T16:16:37.971Z,1.40
2022-09-02T16:19:06.582Z,0.97
2022-09-02T16:21:34.179Z,1.00
2022-09-02T16:24:01.235Z,1.10
2022-09-02T16:26:33.880Z,0.93
2022-09-02T16:29:04.056Z,0.93
2022-09-02T16:31:33.877Z,1.10
2022-09-02T16:34:09.836Z,1.27
2022-09-02T16:36:39.171Z,1.10
2022-09-02T16:39:07.074Z,0.90
2022-09-02T16:41:39.133Z,1.20
2022-09-02T16:44:08.391Z,1.23
2022-09-02T16:46:37.048Z,0.90
2022-09-02T16:49:04.308Z,1.00
2022-09-02T16:51:31.450Z,1.23
2022-09-02T16:54:02.461Z,1.27
2022-09-02T16:56:30.907Z,0.90
2022-09-02T16:59:02.812Z,1.03
2022-09-02T17:01:32.593Z,1.30
2022-09-02T17:04:01.297Z,0.90
2022-09-02T17:06:31.825Z,1.03
2022-09-02T17:09:01.632Z,1.40
2022-09-02T17:11:29.995Z,1.10
2022-09-02T17:14:03.077Z,1.10
2022-09-02T17:16:33.108Z,1.20
2022-09-02T17:19:00.269Z,1.37
2022-09-02T17:21:32.500Z,1.03
2022-09-02T17:23:59.631Z,0.93
2022-09-02T17:26:28.655Z,1.10
2022-09-02T17:28:57.562Z,1.20
2022-09-02T17:31:32.696Z,1.20
2022-09-02T17:34:02.068Z,1.50
2022-09-02T17:36:30.450Z,1.17
2022-09-02T17:38:59.012Z,5.33
2022-09-02T17:41:45.201Z,5.27
2022-09-02T17:44:13.889Z,2.40
2022-09-02T17:46:41.502Z,2.07
2022-09-02T17:49:20.646Z,1.70
2022-09-02T17:51:47.727Z,1.10
2022-09-02T17:54:15.262Z,1.47
2022-09-02T17:56:58.909Z,1.10
2022-09-02T17:59:38.743Z,1.17
2022-09-02T18:02:27.745Z,1.33
2022-09-02T18:05:05.743Z,1.80
2022-09-02T18:07:50.826Z,2.00
2022-09-02T18:10:17.663Z,1.30
2022-09-02T18:12:44.367Z,1.50
2022-09-02T18:15:16.147Z,1.17
2022-09-02T18:17:52.447Z,1.17
2022-09-02T18:20:30.140Z,1.20
2022-09-02T18:23:18.813Z,1.80
2022-09-02T18:26:12.954Z,1.43
2022-09-02T18:28:42.671Z,1.57
2022-09-02T18:31:34.259Z,1.40
2022-09-02T18:34:32.927Z,1.67
2022-09-02T18:37:21.394Z,1.30
2022-09-02T18:40:03.579Z,1.10
2022-09-02T18:43:02.117Z,1.50
2022-09-02T18:45:33.827Z,1.70
2022-09-02T18:48:08.146Z,1.40
2022-09-02T18:50:51.095Z,1.53
2022-09-02T18:53:22.831Z,1.50
2022-09-02T18:55:52.001Z,1.20
2022-09-02T18:58:36.247Z,1.50
2022-09-02T19:01:25.838Z,1.30
2022-09-02T19:03:53.146Z,2.00
2022-09-02T19:06:25.475Z,1.60
2022-09-02T19:08:59.606Z,1.70
2022-09-02T19:11:27.251Z,1.37
2022-09-02T19:13:56.921Z,1.30
2022-09-02T19:16:26.936Z,1.97
2022-09-02T19:18:54.257Z,1.70
2022-09-02T19:21:31.130Z,1.87
2022-09-02T19:23:57.918Z,1.53
2022-09-02T19:26:25.102Z,1.63
2022-09-02T19:28:52.744Z,1.50
2022-09-02T19:31:22.778Z,1.53
2022-09-02T19:33:52.636Z,1.47
2022-09-02T19:36:22.558Z,1.87
2022-09-02T19:38:49.289Z,1.83
2022-09-02T19:41:15.964Z,1.70
2022-09-02T19:43:42.606Z,1.60
2022-09-02T19:46:27.709Z,1.37
2022-09-02T19:48:58.047Z,1.70
2022-09-02T19:51:27.233Z,1.60
2022-09-02T19:53:56.441Z,1.80
2022-09-02T19:56:23.202Z,1.70
2022-09-02T19:58:49.930Z,1.33
2022-09-02T20:01:16.703Z,1.93
2022-09-02T20:03:43.549Z,1.63
2022-09-02T20:06:10.252Z,1.60
2022-09-02T20:08:37.028Z,2.00
2022-09-02T20:11:05.719Z,1.90
2022-09-02T20:13:40.993Z,2.53
2022-09-02T20:16:20.322Z,1.90
2022-09-02T20:18:49.507Z,1.93
2022-09-02T20:21:24.742Z,1.90
2022-09-02T20:23:53.922Z,1.60
2022-09-02T20:26:39.579Z,1.40
2022-09-02T20:29:15.784Z,2.00
2022-09-02T20:32:07.475Z,1.50
2022-09-02T20:34:59.743Z,2.20
2022-09-02T20:37:50.193Z,2.47
2022-09-02T20:40:32.311Z,1.83
2022-09-02T20:43:15.232Z,2.17
2022-09-02T20:46:01.802Z,1.83
2022-09-02T20:48:53.348Z,2.30
2022-09-02T20:51:25.252Z,1.93
2022-09-02T20:54:13.901Z,1.90
2022-09-02T20:56:55.499Z,2.50
2022-09-02T20:59:46.170Z,2.20
2022-09-02T21:02:15.158Z,1.97
2022-09-02T21:04:50.628Z,1.90
2022-09-02T21:07:24.656Z,2.43
2022-09-02T21:10:17.928Z,1.97
2022-09-02T21:12:59.939Z,2.00
2022-09-02T21:15:34.882Z,2.40
2022-09-02T21:18:51.213Z,2.00
2022-09-02T21:21:31.575Z,2.23
2022-09-02T21:24:09.912Z,1.60
2022-09-02T21:27:00.750Z,2.10
2022-09-02T21:29:32.314Z,2.00
2022-09-02T21:32:12.088Z,2.03
2022-09-02T21:34:56.403Z,2.20
2022-09-02T21:37:23.492Z,1.87
2022-09-02T21:40:11.473Z,1.93
2022-09-02T21:43:11.643Z,1.67
2022-09-02T21:45:52.095Z,2.50
2022-09-02T21:48:35.239Z,1.67
2022-09-02T21:51:08.644Z,2.27
2022-09-02T21:53:56.334Z,2.00
2022-09-02T21:56:50.303Z,2.33
2022-09-02T21:59:35.510Z,3.27
2022-09-02T22:02:25.607Z,2.43
2022-09-02T22:05:17.093Z,2.30
2022-09-02T22:07:50.512Z,2.00
2022-09-02T22:10:49.589Z,2.10
2022-09-02T22:13:16.649Z,2.23
2022-09-02T22:16:16.185Z,2.00
2022-09-02T22:19:00.614Z,2.53
2022-09-02T22:21:54.008Z,2.27
2022-09-02T22:24:28.772Z,2.70
2022-09-02T22:27:11.478Z,2.20
2022-09-02T22:29:57.956Z,2.20
2022-09-02T22:32:28.546Z,2.13
2022-09-02T22:35:34.118Z,2.50
2022-09-02T22:38:28.632Z,2.13
2022-09-02T22:41:15.300Z,2.57
2022-09-02T22:43:54.420Z,2.23
2022-09-02T22:46:48.467Z,2.50
2022-09-02T22:49:40.060Z,2.13
2022-09-02T22:52:34.572Z,2.10
2022-09-02T22:55:01.284Z,2.10
2022-09-02T22:57:57.366Z,2.07
2022-09-02T23:00:26.478Z,2.00
2022-09-02T23:03:16.708Z,2.10
2022-09-02T23:05:47.814Z,1.90
2022-09-02T23:08:17.713Z,2.10
2022-09-02T23:10:57.025Z,2.67
2022-09-02T23:13:32.891Z,1.93
2022-09-02T23:16:17.425Z,2.37
2022-09-02T23:19:01.396Z,2.67
2022-09-02T23:21:55.508Z,2.40
2022-09-02T23:24:25.136Z,2.20
2022-09-02T23:26:58.412Z,2.50
2022-09-02T23:29:28.705Z,1.67
2022-09-02T23:32:30.693Z,2.23
2022-09-02T23:35:18.344Z,2.07
2022-09-02T23:38:05.393Z,1.93
2022-09-02T23:40:37.629Z,2.20
2022-09-02T23:43:04.326Z,2.30
2022-09-02T23:45:33.708Z,2.00
2022-09-02T23:48:22.251Z,2.10
2022-09-02T23:51:08.696Z,2.13
2022-09-02T23:53:49.003Z,2.13
2022-09-02T23:56:32.661Z,2.17
2022-09-02T23:59:14.299Z,2.00
